Time;durP1;ratioP1;P1;durP2;ratioP2;P2;SDS_P1;SDS_P2;PMS_P1;PMS_P2;Temp;Humidity;BMP_temperature;BMP_pressure;BME280_temperature;BME280_humidity;BME280_pressure;Samples;Min_cycle;Max_cycle;Signal;HPM_P1;HPM_P2
2022/11/06 00:00:25;;;;;;;16.30;15.40;;;11.00;34.10;;;;;;4952709;29;20183;-81
2022/11/06 00:02:50;;;;;;;16.03;15.10;;;11.00;33.90;;;;;;4952061;28;20446;-80
2022/11/06 00:08:01;;;;;;;16.63;15.43;;;11.00;33.70;;;;;;4953880;29;20255;-80
2022/11/06 00:10:32;;;;;;;15.47;14.37;;;10.90;33.70;;;;;;4953084;29;20517;-81
2022/11/06 00:12:59;;;;;;;16.23;15.17;;;10.90;33.70;;;;;;4952975;28;20234;-80
2022/11/06 00:15:25;;;;;;;17.13;15.77;;;10.90;33.80;;;;;;4954259;29;20419;-80
2022/11/06 00:17:51;;;;;;;16.33;15.33;;;10.90;33.70;;;;;;4953159;29;20443;-82
2022/11/06 00:20:17;;;;;;;16.77;15.70;;;10.90;33.70;;;;;;4950852;29;20274;-80
2022/11/06 00:22:43;;;;;;;16.90;16.00;;;11.00;33.90;;;;;;4951920;28;20454;-81
2022/11/06 00:25:09;;;;;;;16.43;15.33;;;10.90;33.90;;;;;;4951797;29;20179;-82
2022/11/06 00:27:36;;;;;;;17.40;16.40;;;10.90;34.20;;;;;;4952043;29;20203;-82
2022/11/06 00:30:06;;;;;;;17.13;16.23;;;10.80;34.00;;;;;;4953262;29;20419;-80
2022/11/06 00:32:31;;;;;;;17.53;16.50;;;10.80;34.10;;;;;;4950443;28;20443;-80
2022/11/06 00:34:57;;;;;;;16.27;15.27;;;10.80;34.50;;;;;;4951818;29;20442;-80
2022/11/06 00:37:23;;;;;;;16.00;15.20;;;10.80;34.10;;;;;;4952245;29;20241;-81
2022/11/06 00:39:48;;;;;;;16.60;15.53;;;10.80;33.70;;;;;;4954057;29;20278;-80
2022/11/06 00:42:14;;;;;;;15.67;14.77;;;10.80;33.90;;;;;;4952812;28;20187;-82
2022/11/06 00:44:40;;;;;;;16.67;15.57;;;10.80;33.70;;;;;;4954560;29;20672;-82
2022/11/06 00:47:05;;;;;;;17.00;15.77;;;10.70;33.40;;;;;;4969198;28;20215;-81
2022/11/06 00:49:31;;;;;;;17.87;16.63;;;10.40;34.00;;;;;;4961035;29;20176;-81
2022/11/06 00:51:57;;;;;;;17.93;16.83;;;9.70;37.30;;;;;;4968355;28;20188;-81
2022/11/06 00:54:23;;;;;;;18.00;16.80;;;9.30;38.60;;;;;;4968493;28;20215;-82
2022/11/06 00:56:48;;;;;;;16.80;15.70;;;8.80;40.70;;;;;;4967765;28;20207;-81
2022/11/06 00:59:14;;;;;;;17.80;16.60;;;8.50;42.30;;;;;;4971944;28;20423;-81
2022/11/06 01:01:42;;;;;;;18.53;17.03;;;8.60;42.10;;;;;;4957953;29;20269;-80
2022/11/06 01:04:16;;;;;;;17.93;16.83;;;8.40;42.80;;;;;;4955074;28;20199;-81
2022/11/06 01:06:44;;;;;;;18.30;17.00;;;8.50;42.90;;;;;;4953457;29;20430;-81
2022/11/06 01:09:12;;;;;;;18.40;17.30;;;8.60;42.20;;;;;;4967213;28;20463;-80
2022/11/06 01:11:52;;;;;;;17.77;16.40;;;8.70;42.40;;;;;;4951621;29;20431;-80
2022/11/06 01:14:20;;;;;;;17.77;16.67;;;8.80;42.20;;;;;;4950685;28;21048;-81
2022/11/06 01:16:45;;;;;;;19.03;17.80;;;8.70;41.50;;;;;;4951669;29;20427;-80
2022/11/06 01:19:13;;;;;;;17.70;16.70;;;8.70;42.00;;;;;;4952876;29;20430;-80
2022/11/06 01:21:41;;;;;;;18.20;17.00;;;8.80;41.60;;;;;;4951315;29;20210;-80
2022/11/06 01:24:12;;;;;;;18.20;17.00;;;9.00;41.70;;;;;;4949726;28;20891;-80
2022/11/06 01:26:38;;;;;;;16.73;15.73;;;9.20;41.70;;;;;;4969562;28;20494;-80
2022/11/06 01:29:11;;;;;;;17.50;16.50;;;9.50;40.80;;;;;;4953808;29;20432;-81
2022/11/06 01:31:36;;;;;;;17.37;16.13;;;9.70;39.60;;;;;;4950120;28;20419;-81
2022/11/06 01:34:03;;;;;;;16.63;15.73;;;9.90;38.80;;;;;;4948056;28;20473;-80
2022/11/06 01:36:29;;;;;;;17.90;16.70;;;10.00;37.20;;;;;;4946837;29;20191;-80
2022/11/06 01:38:58;;;;;;;16.20;15.20;;;10.10;36.60;;;;;;4950735;28;20418;-81
2022/11/06 01:41:27;;;;;;;17.87;16.57;;;10.20;36.10;;;;;;4952262;29;20434;-81
2022/11/06 01:44:00;;;;;;;17.90;16.70;;;10.20;35.70;;;;;;4949118;28;20579;-81
2022/11/06 01:46:29;;;;;;;17.50;16.30;;;10.30;34.90;;;;;;4950512;29;20490;-82
2022/11/06 01:49:08;;;;;;;17.93;16.77;;;10.40;34.40;;;;;;4950060;28;20494;-81
2022/11/06 01:51:39;;;;;;;16.17;15.27;;;10.40;34.30;;;;;;4949877;29;20840;-82
2022/11/06 01:54:07;;;;;;;18.10;17.00;;;10.40;34.00;;;;;;4948928;28;20980;-81
2022/11/06 01:56:34;;;;;;;17.50;16.00;;;10.40;33.90;;;;;;4949168;29;20558;-82
2022/11/06 01:59:00;;;;;;;16.73;15.73;;;10.10;35.10;;;;;;4950133;28;20411;-80
2022/11/06 02:02:11;;;;;;;18.37;17.27;;;10.20;34.50;;;;;;4951119;28;20407;-81
2022/11/06 02:05:12;;;;;;;18.70;17.60;;;10.20;34.40;;;;;;4860721;29;20429;-80
2022/11/06 02:07:40;;;;;;;16.40;15.30;;;10.30;33.80;;;;;;4950250;29;20481;-82
2022/11/06 02:10:06;;;;;;;17.57;16.37;;;10.30;33.30;;;;;;4966285;28;20474;-81
2022/11/06 02:13:06;;;;;;;16.50;15.60;;;10.30;33.60;;;;;;4950037;28;20435;-82
2022/11/06 02:15:35;;;;;;;16.27;15.23;;;10.40;33.50;;;;;;4941562;29;21354;-82
2022/11/06 02:18:12;;;;;;;15.60;14.60;;;10.40;33.70;;;;;;4964533;28;20892;-81
2022/11/06 02:21:20;;;;;;;16.67;15.70;;;10.40;33.50;;;;;;4963655;28;20494;-82
2022/11/06 02:23:55;;;;;;;15.97;15.03;;;10.40;33.30;;;;;;4948309;28;20958;-81
2022/11/06 02:27:09;;;;;;;16.50;15.60;;;10.40;32.90;;;;;;4947490;29;20421;-82
2022/11/06 02:29:52;;;;;;;18.00;16.47;;;10.30;33.40;;;;;;4943569;28;20431;-82
2022/11/06 02:32:33;;;;;;;15.97;15.07;;;10.20;33.10;;;;;;4948640;28;20471;-82
2022/11/06 02:35:04;;;;;;;15.53;14.63;;;9.70;35.10;;;;;;4951313;29;20410;-82
2022/11/06 02:37:35;;;;;;;16.20;15.10;;;9.20;36.80;;;;;;4950775;28;20407;-81
2022/11/06 02:40:04;;;;;;;16.03;15.17;;;9.10;37.40;;;;;;4952281;29;20454;-81
2022/11/06 02:42:34;;;;;;;17.03;15.80;;;9.10;37.50;;;;;;4949149;29;20431;-82
2022/11/06 02:45:01;;;;;;;17.13;16.10;;;9.10;37.40;;;;;;4948191;29;20909;-81
2022/11/06 02:47:29;;;;;;;18.10;16.80;;;8.90;37.80;;;;;;4949440;29;20466;-81
2022/11/06 02:50:05;;;;;;;17.60;16.37;;;8.80;39.10;;;;;;4961883;28;20423;-81
2022/11/06 02:52:42;;;;;;;18.03;16.73;;;8.70;40.00;;;;;;4945864;29;20534;-81
2022/11/06 02:55:25;;;;;;;16.30;15.40;;;8.70;40.20;;;;;;4948045;29;20842;-81
2022/11/06 03:01:55;;;;;;;16.50;15.57;;;8.80;38.70;;;;;;4960304;29;20462;-82
2022/11/06 03:05:24;;;;;;;16.93;15.73;;;8.90;38.60;;;;;;4950820;28;20885;-82
2022/11/06 03:08:58;;;;;;;15.37;14.50;;;8.80;38.40;;;;;;4920113;29;21046;-81
2022/11/06 03:22:26;;;;;;;16.20;15.30;;;9.40;36.90;;;;;;4942901;28;21038;-81
2022/11/06 03:25:34;;;;;;;16.97;15.97;;;9.70;36.00;;;;;;4946610;28;21326;-81
2022/11/06 03:28:21;;;;;;;16.63;15.63;;;9.80;35.20;;;;;;4873065;29;21097;-81
2022/11/06 03:30:56;;;;;;;14.97;14.10;;;9.70;35.70;;;;;;4947417;29;20423;-80
2022/11/06 03:33:56;;;;;;;16.07;15.17;;;9.80;35.00;;;;;;4945932;28;20460;-81
2022/11/06 03:36:28;;;;;;;15.67;14.87;;;9.70;34.00;;;;;;4930607;29;20427;-81
2022/11/06 03:39:08;;;;;;;16.13;15.23;;;9.20;35.40;;;;;;4946018;29;20427;-82
2022/11/06 03:41:58;;;;;;;16.33;15.37;;;9.20;35.80;;;;;;4948093;28;20423;-82
2022/11/06 03:44:27;;;;;;;16.73;15.73;;;9.20;36.00;;;;;;4948145;29;20442;-80
2022/11/06 03:47:01;;;;;;;16.30;15.30;;;9.30;36.30;;;;;;4948387;29;20415;-82
2022/11/06 03:49:37;;;;;;;15.20;14.20;;;9.40;36.20;;;;;;4948840;29;20498;-83
2022/11/06 03:52:09;;;;;;;17.07;16.07;;;9.50;35.80;;;;;;4949285;28;20430;-80
2022/11/06 03:54:41;;;;;;;15.70;14.80;;;9.60;35.10;;;;;;4949287;29;20467;-80
2022/11/06 03:57:14;;;;;;;16.60;15.70;;;9.80;34.20;;;;;;4948571;29;20808;-80
2022/11/06 03:59:45;;;;;;;16.00;15.10;;;9.90;33.80;;;;;;4948606;29;20414;-79
2022/11/06 04:02:12;;;;;;;16.50;15.50;;;9.90;33.40;;;;;;4954746;28;20443;-81
2022/11/06 04:04:54;;;;;;;14.83;14.03;;;9.80;32.90;;;;;;4954370;29;20462;-82
2022/11/06 04:13:56;;;;;;;15.83;15.03;;;9.70;32.90;;;;;;4955953;29;20477;-81
2022/11/06 04:16:07;;;;;;;15.33;14.27;;;9.60;34.70;;;;;;4954318;29;20433;-81
2022/11/06 04:18:33;;;;;;;16.30;15.27;;;9.70;34.00;;;;;;4951351;29;20518;-80
2022/11/06 04:21:24;;;;;;;15.47;14.67;;;9.80;33.80;;;;;;4949330;29;20473;-81
2022/11/06 04:27:07;;;;;;;14.97;14.17;;;9.80;32.90;;;;;;4951643;29;20410;-81
2022/11/06 04:30:09;;;;;;;16.00;15.20;;;9.60;33.00;;;;;;4953960;29;20442;-82
2022/11/06 04:32:41;;;;;;;16.63;15.63;;;9.70;33.40;;;;;;4954352;28;20859;-82
2022/11/06 04:35:38;;;;;;;16.10;15.27;;;9.40;33.50;;;;;;4955357;29;20422;-81
2022/11/06 04:38:35;;;;;;;15.77;14.87;;;9.20;34.10;;;;;;4955094;29;20434;-81
2022/11/06 04:41:35;;;;;;;15.40;14.50;;;9.10;35.30;;;;;;4954757;28;20473;-81
2022/11/06 04:44:08;;;;;;;16.30;15.30;;;9.00;35.40;;;;;;4956305;28;20474;-82
2022/11/06 04:46:45;;;;;;;15.40;14.60;;;8.90;36.30;;;;;;4957712;29;20427;-81
2022/11/06 04:49:13;;;;;;;16.80;15.80;;;9.10;35.90;;;;;;4959939;29;20955;-82
2022/11/06 04:51:39;;;;;;;16.37;15.37;;;9.30;35.20;;;;;;4960864;29;20423;-81
2022/11/06 04:54:07;;;;;;;16.40;15.40;;;9.20;34.80;;;;;;4957783;29;20435;-81
2022/11/06 04:56:35;;;;;;;16.60;15.47;;;9.30;34.40;;;;;;4961610;28;20407;-80
2022/11/06 04:59:02;;;;;;;15.83;14.83;;;9.10;34.40;;;;;;4961673;29;20459;-81
2022/11/06 05:01:27;;;;;;;15.47;14.67;;;9.00;35.00;;;;;;4957965;29;20466;-80
2022/11/06 05:03:53;;;;;;;15.80;14.90;;;9.00;35.80;;;;;;4957998;29;20443;-83
2022/11/06 05:06:18;;;;;;;16.43;15.43;;;9.10;35.30;;;;;;4959409;29;20246;-80
2022/11/06 05:08:45;;;;;;;15.10;14.30;;;9.20;34.70;;;;;;4963673;28;20218;-81
2022/11/06 05:11:10;;;;;;;15.30;14.40;;;9.00;34.20;;;;;;4960385;29;20187;-82
2022/11/06 05:13:37;;;;;;;14.73;13.93;;;8.50;35.30;;;;;;4962214;29;20447;-82
2022/11/06 05:16:03;;;;;;;15.80;15.00;;;8.00;37.10;;;;;;4967002;29;20171;-80
2022/11/06 05:18:28;;;;;;;16.40;15.50;;;8.00;37.70;;;;;;4961461;29;20443;-79
2022/11/06 05:23:45;;;;;;;15.47;14.57;;;8.30;37.20;;;;;;4964612;28;20263;-80
2022/11/06 05:26:11;;;;;;;15.80;14.90;;;8.50;37.30;;;;;;4962825;28;20450;-80
2022/11/06 05:28:37;;;;;;;15.13;14.33;;;8.80;35.60;;;;;;4964429;29;20199;-80
2022/11/06 05:31:02;;;;;;;15.03;14.23;;;8.70;35.10;;;;;;4962172;29;20434;-80
2022/11/06 05:33:28;;;;;;;16.10;15.30;;;8.60;35.70;;;;;;4962929;29;20199;-79
2022/11/06 05:35:54;;;;;;;15.00;14.27;;;8.80;35.40;;;;;;4962572;29;20589;-80
2022/11/06 05:38:19;;;;;;;16.47;15.47;;;9.00;34.90;;;;;;4961990;29;20203;-80
2022/11/06 05:40:45;;;;;;;15.27;14.23;;;9.10;33.90;;;;;;4963568;28;20314;-82
2022/11/06 05:43:11;;;;;;;14.83;13.87;;;8.80;33.80;;;;;;4964769;28;20207;-79
2022/11/06 05:45:36;;;;;;;15.80;14.90;;;8.70;34.50;;;;;;4968696;29;20407;-81
2022/11/06 05:48:02;;;;;;;14.67;13.87;;;8.50;34.30;;;;;;4975493;29;20274;-81
2022/11/06 05:50:28;;;;;;;14.20;13.40;;;8.60;35.20;;;;;;4963599;29;20534;-81
2022/11/06 05:52:53;;;;;;;14.83;13.97;;;8.70;34.40;;;;;;4958820;29;20263;-80
2022/11/06 05:55:19;;;;;;;14.87;13.97;;;8.90;33.80;;;;;;4958249;29;20266;-80
2022/11/06 05:57:44;;;;;;;15.03;14.13;;;9.00;33.30;;;;;;4959253;28;20183;-81
2022/11/06 06:00:11;;;;;;;14.93;14.03;;;9.10;32.70;;;;;;4958563;29;20183;-81
2022/11/06 06:02:37;;;;;;;15.33;14.50;;;9.20;32.30;;;;;;4960513;28;20686;-81
2022/11/06 06:05:04;;;;;;;15.00;14.20;;;9.30;31.90;;;;;;4959297;29;20530;-81
2022/11/06 06:07:30;;;;;;;15.70;14.90;;;9.10;32.00;;;;;;4975840;28;20199;-81
2022/11/06 06:09:56;;;;;;;15.80;15.00;;;9.10;32.90;;;;;;4957954;29;20447;-80
2022/11/06 06:12:25;;;;;;;15.20;14.40;;;9.20;32.20;;;;;;4974656;28;20453;-80
2022/11/06 06:14:53;;;;;;;16.27;15.37;;;9.20;31.80;;;;;;4967840;29;20186;-82
2022/11/06 06:17:19;;;;;;;15.90;15.10;;;9.40;32.00;;;;;;4974700;28;20443;-79
2022/11/06 06:19:45;;;;;;;16.40;15.50;;;9.40;33.00;;;;;;4970824;28;20435;-81
2022/11/06 06:22:11;;;;;;;16.17;15.27;;;9.50;32.80;;;;;;4971098;28;20431;-81
2022/11/06 06:24:36;;;;;;;15.90;15.10;;;9.50;32.30;;;;;;4975209;29;20182;-81
2022/11/06 06:27:02;;;;;;;16.17;15.27;;;9.60;32.10;;;;;;4973859;28;20203;-80
2022/11/06 06:29:28;;;;;;;15.83;15.03;;;9.60;32.60;;;;;;4969269;29;20202;-80
2022/11/06 06:31:54;;;;;;;16.40;15.60;;;9.50;33.40;;;;;;4975327;29;20399;-79
2022/11/06 06:34:19;;;;;;;16.40;15.50;;;9.40;33.60;;;;;;4974949;28;20214;-82
2022/11/06 06:36:52;;;;;;;16.23;15.43;;;9.30;33.10;;;;;;4967765;28;20238;-82
2022/11/06 06:39:18;;;;;;;16.57;15.63;;;9.30;32.30;;;;;;4978656;28;20235;-83
2022/11/06 06:41:53;;;;;;;14.87;14.07;;;9.30;32.00;;;;;;4977895;28;20427;-82
2022/11/06 06:45:27;;;;;;;15.50;14.63;;;9.30;32.70;;;;;;4975645;28;20494;-82
2022/11/06 06:47:53;;;;;;;15.93;15.13;;;8.60;33.70;;;;;;4972216;28;20466;-80
2022/11/06 06:50:22;;;;;;;16.23;15.37;;;8.20;37.90;;;;;;4976351;28;20474;-81
2022/11/06 06:52:48;;;;;;;15.60;14.90;;;8.50;38.10;;;;;;4973683;29;20526;-79
2022/11/06 06:55:14;;;;;;;16.73;15.80;;;8.70;37.00;;;;;;4967371;29;20415;-79
2022/11/06 06:57:54;;;;;;;16.07;15.07;;;8.90;37.70;;;;;;4956893;29;20212;-80
2022/11/06 07:01:09;;;;;;;16.27;15.17;;;9.10;36.10;;;;;;4982507;28;20198;-82
2022/11/06 07:04:22;;;;;;;15.93;14.93;;;9.20;35.40;;;;;;4961071;29;20519;-82
2022/11/06 07:07:38;;;;;;;16.53;15.50;;;9.40;33.30;;;;;;4966122;29;20431;-81
2022/11/06 07:11:10;;;;;;;16.60;15.70;;;8.90;33.80;;;;;;4955765;28;20431;-81
2022/11/06 07:14:11;;;;;;;16.23;15.20;;;8.30;35.40;;;;;;4960548;28;20966;-81
2022/11/06 07:17:22;;;;;;;17.27;16.37;;;8.10;37.80;;;;;;4925805;29;20997;-82
2022/11/06 07:27:22;;;;;;;16.90;16.07;;;7.60;38.20;;;;;;4842322;29;20435;-81
2022/11/06 07:30:39;;;;;;;16.93;16.03;;;7.70;38.00;;;;;;4867598;29;20841;-82
2022/11/06 07:44:10;;;;;;;17.37;16.37;;;7.60;40.60;;;;;;4801587;29;20453;-80
2022/11/06 07:47:29;;;;;;;16.83;15.83;;;8.10;39.00;;;;;;4787185;29;21021;-82
2022/11/06 07:50:20;;;;;;;16.40;15.50;;;8.30;36.00;;;;;;4800958;29;20883;-82
2022/11/06 07:56:54;;;;;;;16.87;15.97;;;8.00;36.30;;;;;;4854271;29;20507;-82
2022/11/06 08:09:48;;;;;;;16.70;15.80;;;8.30;37.10;;;;;;4850229;29;20488;-79
2022/11/06 08:16:42;;;;;;;16.60;15.70;;;8.40;36.20;;;;;;4843443;29;20969;-81
2022/11/06 08:20:06;;;;;;;15.73;14.93;;;7.80;37.60;;;;;;4843331;29;20429;-82
2022/11/06 08:40:37;;;;;;;16.77;15.70;;;6.80;41.70;;;;;;4779447;30;20469;-84
2022/11/06 09:48:16;;;;;;;14.03;13.23;;;9.30;37.30;;;;;;4931145;29;20474;-82
2022/11/06 10:12:07;;;;;;;14.43;13.63;;;10.00;34.90;;;;;;4905009;29;20450;-84
2022/11/06 10:19:27;;;;;;;15.93;14.93;;;10.30;33.40;;;;;;4850002;29;20407;-85
2022/11/06 10:29:31;;;;;;;13.63;12.93;;;10.90;32.70;;;;;;4810947;29;20445;-83
2022/11/06 10:32:47;;;;;;;14.70;14.00;;;11.00;32.10;;;;;;4829936;29;20504;-83
2022/11/06 10:39:14;;;;;;;14.70;13.90;;;10.70;32.10;;;;;;4809515;29;20544;-84
2022/11/06 10:42:38;;;;;;;13.80;13.03;;;10.50;32.30;;;;;;4825199;29;20547;-82
2022/11/06 10:46:03;;;;;;;15.10;14.30;;;10.70;32.90;;;;;;4810945;29;20426;-81
2022/11/06 10:49:26;;;;;;;14.90;14.10;;;10.90;32.30;;;;;;4826178;29;20476;-86
2022/11/06 11:12:45;;;;;;;15.43;14.63;;;11.30;31.60;;;;;;4901127;29;20525;-85
2022/11/06 11:42:31;;;;;;;11.50;10.90;;;11.40;30.40;;;;;;4899924;22;20579;-57
2022/11/06 11:45:08;;;;;;;11.43;10.83;;;11.30;30.60;;;;;;4966501;28;20434;-59
2022/11/06 11:47:40;;;;;;;11.53;10.93;;;11.20;30.90;;;;;;4950682;29;20473;-58
2022/11/06 11:50:24;;;;;;;11.70;11.20;;;11.20;31.50;;;;;;4947472;29;20411;-58
2022/11/06 11:53:05;;;;;;;11.70;11.10;;;11.20;31.60;;;;;;4950253;29;20469;-58
2022/11/06 11:55:38;;;;;;;10.00;9.60;;;11.30;31.40;;;;;;4950320;28;20457;-58
2022/11/06 11:58:19;;;;;;;11.83;11.03;;;11.40;30.90;;;;;;4953900;29;20477;-58
2022/11/06 12:00:54;;;;;;;11.80;11.20;;;11.40;31.20;;;;;;4954467;29;20457;-58
2022/11/06 12:03:22;;;;;;;11.13;10.63;;;11.50;30.40;;;;;;4952850;29;20410;-58
2022/11/06 12:05:48;;;;;;;10.70;10.23;;;11.40;30.10;;;;;;4955070;29;20477;-58
2022/11/06 12:08:24;;;;;;;12.57;11.87;;;11.50;30.50;;;;;;4951105;29;20545;-58
2022/11/06 12:10:50;;;;;;;13.57;12.80;;;11.50;30.70;;;;;;4960521;28;20205;-59
2022/11/06 12:13:19;;;;;;;11.43;10.83;;;11.50;30.90;;;;;;4973286;28;20422;-59
2022/11/06 12:15:49;;;;;;;12.60;12.00;;;11.60;31.80;;;;;;4967064;28;20184;-59
2022/11/06 12:18:18;;;;;;;11.93;11.33;;;11.70;30.50;;;;;;4968703;28;20433;-58
2022/11/06 12:20:51;;;;;;;12.13;11.33;;;11.90;31.20;;;;;;4970193;28;20414;-58
2022/11/06 12:23:48;;;;;;;11.60;11.10;;;12.00;30.80;;;;;;4971446;28;20425;-58
2022/11/06 12:26:21;;;;;;;11.83;11.17;;;12.10;30.90;;;;;;4969237;28;20418;-58
2022/11/06 12:28:50;;;;;;;12.17;11.53;;;12.10;31.40;;;;;;4971793;28;20489;-58
2022/11/06 12:31:41;;;;;;;12.30;11.60;;;12.20;31.10;;;;;;4969423;28;20899;-59
2022/11/06 12:34:13;;;;;;;12.57;11.87;;;12.20;29.80;;;;;;4970463;28;20531;-56
2022/11/06 12:36:48;;;;;;;11.80;11.20;;;12.20;30.00;;;;;;4970871;28;20512;-54
2022/11/06 12:39:21;;;;;;;11.40;10.80;;;12.20;30.40;;;;;;4968748;28;21095;-55
2022/11/06 12:41:49;;;;;;;12.10;11.47;;;12.20;30.20;;;;;;4968511;28;20413;-56
2022/11/06 12:44:15;;;;;;;11.83;11.23;;;12.20;30.20;;;;;;4970624;28;20442;-55
2022/11/06 12:46:53;;;;;;;12.20;11.60;;;12.20;30.60;;;;;;4969315;28;20418;-56
2022/11/06 12:49:56;;;;;;;11.50;10.70;;;12.20;30.60;;;;;;4969686;28;20933;-56
2022/11/06 12:52:40;;;;;;;11.67;11.17;;;12.20;30.40;;;;;;4971772;28;20408;-56
2022/11/06 12:55:19;;;;;;;11.30;10.60;;;12.30;31.40;;;;;;4968154;28;20417;-55
2022/11/06 12:58:09;;;;;;;10.67;10.07;;;12.20;30.40;;;;;;4974010;28;20417;-55
2022/11/06 13:01:00;;;;;;;12.07;11.50;;;12.30;29.90;;;;;;4966025;28;20422;-59
2022/11/06 13:03:50;;;;;;;10.50;10.00;;;12.20;29.70;;;;;;4970608;28;20410;-57
2022/11/06 13:06:22;;;;;;;11.40;10.70;;;12.20;29.40;;;;;;4969087;28;20472;-56
2022/11/06 13:08:59;;;;;;;11.23;10.70;;;12.20;29.70;;;;;;4966850;28;20516;-57
2022/11/06 13:11:49;;;;;;;10.90;10.40;;;12.20;29.90;;;;;;4969196;28;20792;-57
2022/11/06 13:14:39;;;;;;;10.50;9.90;;;12.20;29.80;;;;;;4968363;28;20808;-59
2022/11/06 13:17:20;;;;;;;11.77;11.10;;;12.20;29.00;;;;;;4972011;28;21013;-57
2022/11/06 13:20:02;;;;;;;12.80;12.20;;;12.00;29.60;;;;;;4987987;28;20424;-56
2022/11/06 13:22:28;;;;;;;11.50;11.00;;;11.90;30.00;;;;;;4988108;28;20436;-58
2022/11/06 13:25:05;;;;;;;12.83;12.13;;;11.90;30.40;;;;;;4986313;28;20418;-56
2022/11/06 13:27:49;;;;;;;11.37;10.87;;;12.00;30.20;;;;;;4988033;28;20582;-56
2022/11/06 13:30:18;;;;;;;11.90;11.30;;;12.00;30.30;;;;;;4984982;28;20483;-56
2022/11/06 13:33:07;;;;;;;12.03;11.53;;;12.00;30.40;;;;;;4990212;28;20500;-55
2022/11/06 13:35:36;;;;;;;11.93;11.33;;;12.10;30.00;;;;;;4987345;28;20467;-57
2022/11/06 13:38:05;;;;;;;11.57;11.07;;;12.20;29.90;;;;;;4985516;28;20456;-57
2022/11/06 13:40:42;;;;;;;11.20;10.70;;;12.20;29.70;;;;;;4988250;28;20502;-56
2022/11/06 13:43:18;;;;;;;10.73;10.23;;;12.20;29.70;;;;;;4986876;28;20452;-56
2022/11/06 13:45:54;;;;;;;11.77;11.17;;;12.30;29.70;;;;;;4987382;28;20421;-56
2022/11/06 13:48:30;;;;;;;12.00;11.27;;;12.30;29.80;;;;;;4986164;28;20471;-57
2022/11/06 13:51:05;;;;;;;12.17;11.37;;;12.30;30.00;;;;;;4984820;28;20421;-56
2022/11/06 13:53:33;;;;;;;13.97;13.07;;;12.40;30.20;;;;;;4986286;28;20440;-56
2022/11/06 13:56:32;;;;;;;11.93;11.30;;;12.30;30.30;;;;;;4986345;28;20449;-56
2022/11/06 13:59:18;;;;;;;12.40;11.80;;;12.40;30.50;;;;;;4986155;28;20544;-56
2022/11/06 14:02:22;;;;;;;12.37;11.77;;;12.50;30.80;;;;;;4985299;28;20423;-56
2022/11/06 14:05:00;;;;;;;12.57;11.97;;;12.50;30.70;;;;;;4974003;28;20432;-57
2022/11/06 14:07:29;;;;;;;12.10;11.30;;;12.40;30.50;;;;;;4982815;28;20503;-56
2022/11/06 14:09:55;;;;;;;12.17;11.53;;;12.50;30.90;;;;;;4985316;28;20432;-56
2022/11/06 14:12:21;;;;;;;12.23;11.60;;;12.60;31.10;;;;;;4985230;28;20504;-56
2022/11/06 14:14:48;;;;;;;12.10;11.40;;;12.50;31.60;;;;;;4981975;28;20414;-57
2022/11/06 14:17:17;;;;;;;10.67;9.97;;;12.50;31.90;;;;;;4982151;28;20418;-56
2022/11/06 14:20:01;;;;;;;11.20;10.70;;;12.50;32.10;;;;;;4984495;28;21045;-57
2022/11/06 14:22:29;;;;;;;11.37;10.77;;;12.60;32.20;;;;;;4985732;28;20452;-56
2022/11/06 14:24:55;;;;;;;10.93;10.43;;;12.60;31.60;;;;;;4983604;28;20789;-57
2022/11/06 14:27:20;;;;;;;12.17;11.47;;;12.50;31.80;;;;;;4965745;28;20466;-57
2022/11/06 14:29:55;;;;;;;16.13;10.43;;;12.50;32.00;;;;;;4962152;28;20469;-56
2022/11/06 14:32:30;;;;;;;11.57;10.97;;;12.50;31.90;;;;;;4964016;28;20182;-57
2022/11/06 14:35:14;;;;;;;10.43;9.77;;;12.50;32.00;;;;;;4962468;28;20980;-58
2022/11/06 14:37:45;;;;;;;11.73;11.00;;;12.40;32.50;;;;;;4962748;28;21200;-56
2022/11/06 14:40:12;;;;;;;10.00;9.40;;;12.30;32.60;;;;;;4961991;28;20436;-57
2022/11/06 14:42:45;;;;;;;10.57;9.97;;;12.30;33.20;;;;;;4963698;28;20446;-56
2022/11/06 14:45:18;;;;;;;10.50;10.00;;;12.40;32.80;;;;;;4954611;28;20449;-57
2022/11/06 14:47:53;;;;;;;10.90;10.30;;;12.30;33.50;;;;;;4963102;28;20820;-56
2022/11/06 14:50:19;;;;;;;11.63;10.83;;;12.20;33.20;;;;;;4961288;28;20436;-58
2022/11/06 14:52:49;;;;;;;12.57;11.80;;;12.20;33.40;;;;;;4962124;28;20426;-58
2022/11/06 14:55:24;;;;;;;12.33;11.60;;;12.20;32.80;;;;;;4962857;28;20206;-57
2022/11/06 14:57:52;;;;;;;11.83;11.13;;;12.10;33.30;;;;;;4963939;28;20846;-59
2022/11/06 15:00:51;;;;;;;11.80;11.13;;;12.10;33.10;;;;;;4960171;28;20774;-59
2022/11/06 15:03:37;;;;;;;12.27;11.70;;;12.10;33.00;;;;;;4964395;28;20480;-59
2022/11/06 15:06:27;;;;;;;12.60;11.90;;;12.20;33.00;;;;;;4964031;28;20428;-62
2022/11/06 15:08:57;;;;;;;12.80;12.10;;;12.20;32.60;;;;;;4965625;28;21052;-61
2022/11/06 15:11:28;;;;;;;13.13;12.43;;;12.10;32.80;;;;;;4965178;28;20490;-58
2022/11/06 15:14:00;;;;;;;12.63;12.03;;;12.10;32.20;;;;;;4963054;28;20455;-59
2022/11/06 15:16:36;;;;;;;11.97;11.37;;;12.10;32.20;;;;;;4964040;28;20480;-59
2022/11/06 15:19:24;;;;;;;11.70;11.10;;;12.10;32.20;;;;;;4962116;28;20811;-59
2022/11/06 15:22:06;;;;;;;12.37;11.67;;;12.10;31.90;;;;;;4962544;28;20512;-60
2022/11/06 15:24:37;;;;;;;12.90;12.30;;;12.20;31.70;;;;;;4962818;28;20774;-59
2022/11/06 15:27:16;;;;;;;11.70;11.00;;;12.20;32.00;;;;;;4962647;28;20418;-59
2022/11/06 15:29:46;;;;;;;12.20;11.50;;;12.10;32.50;;;;;;4972090;28;20479;-59
2022/11/06 15:32:21;;;;;;;12.30;11.70;;;12.20;32.80;;;;;;4982269;28;20965;-58
2022/11/06 15:35:19;;;;;;;11.90;11.30;;;12.30;32.00;;;;;;4983389;28;20417;-58
2022/11/06 15:37:49;;;;;;;11.90;11.30;;;12.40;32.10;;;;;;4962804;28;20421;-59
2022/11/06 15:40:31;;;;;;;12.67;11.87;;;12.50;32.40;;;;;;4983725;28;20429;-59
2022/11/06 15:43:18;;;;;;;12.50;11.80;;;12.50;31.10;;;;;;4984508;28;20459;-58
2022/11/06 15:45:44;;;;;;;11.80;11.20;;;12.40;31.10;;;;;;4985191;28;20457;-58
2022/11/06 15:48:20;;;;;;;12.07;11.27;;;12.20;31.30;;;;;;4984508;28;20554;-58
2022/11/06 15:50:46;;;;;;;12.07;11.37;;;12.00;32.10;;;;;;4985254;28;20221;-58
2022/11/06 15:53:20;;;;;;;12.07;11.17;;;11.90;32.20;;;;;;4986439;28;20425;-58
2022/11/06 15:55:52;;;;;;;11.30;10.70;;;11.80;33.10;;;;;;4984807;28;20185;-58
2022/11/06 15:58:17;;;;;;;12.17;11.67;;;11.70;33.00;;;;;;4987077;28;20463;-58
2022/11/06 16:00:44;;;;;;;12.53;11.87;;;11.70;33.00;;;;;;4985993;28;20544;-59
2022/11/06 16:03:20;;;;;;;11.87;11.27;;;11.80;33.10;;;;;;4974725;28;20186;-59
2022/11/06 16:05:47;;;;;;;13.10;12.50;;;11.80;33.10;;;;;;4966216;28;20512;-59
2022/11/06 16:08:16;;;;;;;13.73;13.03;;;11.70;33.70;;;;;;4965780;28;20481;-59
2022/11/06 16:10:43;;;;;;;14.07;13.27;;;11.60;33.90;;;;;;4969300;28;20441;-59
2022/11/06 16:13:17;;;;;;;13.00;12.40;;;11.50;34.50;;;;;;4968521;28;20949;-59
2022/11/06 16:15:48;;;;;;;13.73;12.93;;;11.50;34.20;;;;;;4968106;28;20902;-59
2022/11/06 16:18:25;;;;;;;13.00;12.30;;;11.60;34.10;;;;;;4964510;28;20425;-58
2022/11/06 16:21:15;;;;;;;12.87;12.27;;;11.60;34.00;;;;;;4965076;28;20554;-58
2022/11/06 16:23:45;;;;;;;13.50;12.83;;;11.60;34.10;;;;;;4960010;28;20948;-59
2022/11/06 16:26:20;;;;;;;13.07;12.37;;;11.70;35.10;;;;;;4965820;28;20437;-59
2022/11/06 16:28:48;;;;;;;13.40;12.77;;;11.70;34.20;;;;;;4964034;28;20475;-56
2022/11/06 16:31:25;;;;;;;14.07;13.27;;;11.80;34.70;;;;;;4963864;28;20414;-56
2022/11/06 16:34:18;;;;;;;14.70;13.73;;;11.90;34.20;;;;;;4965269;28;20783;-56
2022/11/06 16:37:20;;;;;;;13.83;13.13;;;12.10;33.30;;;;;;4966030;28;20793;-57
2022/11/06 16:39:51;;;;;;;13.43;12.83;;;12.10;34.20;;;;;;4963728;28;20524;-56
2022/11/06 16:42:28;;;;;;;12.87;12.17;;;12.20;33.50;;;;;;4964221;28;20440;-57
2022/11/06 16:45:16;;;;;;;12.63;11.87;;;12.30;33.50;;;;;;4970454;28;20426;-55
2022/11/06 16:47:41;;;;;;;13.17;12.37;;;12.40;33.70;;;;;;4960249;28;20977;-58
2022/11/06 16:50:52;;;;;;;12.37;11.67;;;12.50;33.50;;;;;;4967386;28;20418;-56
2022/11/06 16:53:26;;;;;;;15.03;14.03;;;12.50;33.30;;;;;;4968226;28;20175;-56
2022/11/06 16:56:00;;;;;;;11.90;11.20;;;12.40;31.60;;;;;;4966897;28;20909;-57
2022/11/06 16:58:27;;;;;;;12.83;11.80;;;12.30;31.40;;;;;;4961709;28;20853;-56
2022/11/06 17:01:01;;;;;;;14.93;13.60;;;12.20;31.60;;;;;;4965579;28;20796;-57
2022/11/06 17:03:38;;;;;;;17.20;16.10;;;12.10;31.50;;;;;;4966735;28;20437;-57
2022/11/06 17:06:04;;;;;;;16.90;15.50;;;11.90;31.70;;;;;;4963189;28;21083;-56
2022/11/06 17:08:40;;;;;;;13.97;13.07;;;11.80;32.30;;;;;;4964819;28;20465;-57
2022/11/06 17:11:11;;;;;;;12.40;11.60;;;11.70;32.80;;;;;;4966969;28;20851;-58